sensor_id;sensor_type;location;lat;lon;timestamp;temperature;humidity
21891;DHT22;11110;52.386;16.940;2023-01-10T00:02:03;20.70;44.50
21891;DHT22;11110;52.386;16.940;2023-01-10T00:04:31;20.70;44.50
21891;DHT22;11110;52.386;16.940;2023-01-10T00:07:00;20.70;44.50
21891;DHT22;11110;52.386;16.940;2023-01-10T00:09:30;20.70;44.50
21891;DHT22;11110;52.386;16.940;2023-01-10T00:11:59;20.80;44.50
21891;DHT22;11110;52.386;16.940;2023-01-10T00:14:44;20.70;44.50
21891;DHT22;11110;52.386;16.940;2023-01-10T00:17:13;20.70;44.50
21891;DHT22;11110;52.386;16.940;2023-01-10T00:19:42;20.70;44.50
21891;DHT22;11110;52.386;16.940;2023-01-10T00:22:11;20.70;44.50
21891;DHT22;11110;52.386;16.940;2023-01-10T00:24:49;20.70;44.50
21891;DHT22;11110;52.386;16.940;2023-01-10T00:27:18;20.70;44.50
21891;DHT22;11110;52.386;16.940;2023-01-10T00:29:49;20.70;44.50
21891;DHT22;11110;52.386;16.940;2023-01-10T00:32:20;20.70;44.50
21891;DHT22;11110;52.386;16.940;2023-01-10T00:34:48;20.70;44.60
21891;DHT22;11110;52.386;16.940;2023-01-10T00:37:17;20.70;44.50
21891;DHT22;11110;52.386;16.940;2023-01-10T00:39:46;20.60;44.50
21891;DHT22;11110;52.386;16.940;2023-01-10T00:42:16;20.70;44.60
21891;DHT22;11110;52.386;16.940;2023-01-10T00:45:02;20.70;44.60
21891;DHT22;11110;52.386;16.940;2023-01-10T00:47:31;20.70;44.60
21891;DHT22;11110;52.386;16.940;2023-01-10T00:49:59;20.70;44.60
21891;DHT22;11110;52.386;16.940;2023-01-10T00:52:28;20.70;44.60
21891;DHT22;11110;52.386;16.940;2023-01-10T00:54:57;20.70;44.60
21891;DHT22;11110;52.386;16.940;2023-01-10T00:57:27;20.70;44.50
21891;DHT22;11110;52.386;16.940;2023-01-10T00:59:55;20.70;44.50
21891;DHT22;11110;52.386;16.940;2023-01-10T01:02:24;20.70;44.50
21891;DHT22;11110;52.386;16.940;2023-01-10T01:04:53;20.70;44.50
21891;DHT22;11110;52.386;16.940;2023-01-10T01:07:22;20.70;44.50
21891;DHT22;11110;52.386;16.940;2023-01-10T01:09:50;20.70;44.60
21891;DHT22;11110;52.386;16.940;2023-01-10T01:12:38;20.70;44.40
21891;DHT22;11110;52.386;16.940;2023-01-10T01:15:07;20.80;44.40
21891;DHT22;11110;52.386;16.940;2023-01-10T01:17:36;20.70;44.40
21891;DHT22;11110;52.386;16.940;2023-01-10T01:20:05;20.80;44.40
21891;DHT22;11110;52.386;16.940;2023-01-10T01:22:34;20.80;44.30
21891;DHT22;11110;52.386;16.940;2023-01-10T01:25:04;20.80;44.30
21891;DHT22;11110;52.386;16.940;2023-01-10T01:27:33;20.80;44.30
21891;DHT22;11110;52.386;16.940;2023-01-10T01:30:08;20.80;44.20
21891;DHT22;11110;52.386;16.940;2023-01-10T01:32:37;20.80;44.20
21891;DHT22;11110;52.386;16.940;2023-01-10T01:35:07;20.80;44.30
21891;DHT22;11110;52.386;16.940;2023-01-10T01:37:36;20.80;44.30
21891;DHT22;11110;52.386;16.940;2023-01-10T01:40:05;20.80;44.20
21891;DHT22;11110;52.386;16.940;2023-01-10T01:42:35;20.80;44.20
21891;DHT22;11110;52.386;16.940;2023-01-10T01:45:38;20.80;44.30
21891;DHT22;11110;52.386;16.940;2023-01-10T01:48:19;20.80;44.10
21891;DHT22;11110;52.386;16.940;2023-01-10T01:50:55;20.80;44.10
21891;DHT22;11110;52.386;16.940;2023-01-10T01:53:34;20.90;44.10
21891;DHT22;11110;52.386;16.940;2023-01-10T01:56:08;20.80;44.00
21891;DHT22;11110;52.386;16.940;2023-01-10T01:58:43;20.70;44.10
21891;DHT22;11110;52.386;16.940;2023-01-10T02:01:15;20.70;44.20
21891;DHT22;11110;52.386;16.940;2023-01-10T02:03:49;20.70;44.20
21891;DHT22;11110;52.386;16.940;2023-01-10T02:06:20;20.70;44.20
21891;DHT22;11110;52.386;16.940;2023-01-10T02:08:54;20.70;44.10
21891;DHT22;11110;52.386;16.940;2023-01-10T02:11:24;20.70;44.00
21891;DHT22;11110;52.386;16.940;2023-01-10T02:13:53;20.80;44.10
21891;DHT22;11110;52.386;16.940;2023-01-10T02:16:23;20.70;43.90
21891;DHT22;11110;52.386;16.940;2023-01-10T02:18:52;20.80;44.00
21891;DHT22;11110;52.386;16.940;2023-01-10T02:27:25;20.80;44.00
21891;DHT22;11110;52.386;16.940;2023-01-10T02:30:16;20.80;44.00
21891;DHT22;11110;52.386;16.940;2023-01-10T02:32:48;20.80;43.90
21891;DHT22;11110;52.386;16.940;2023-01-10T02:35:45;20.80;44.00
21891;DHT22;11110;52.386;16.940;2023-01-10T02:38:26;20.80;44.00
21891;DHT22;11110;52.386;16.940;2023-01-10T02:41:04;20.80;43.90
21891;DHT22;11110;52.386;16.940;2023-01-10T02:43:36;20.80;43.90
21891;DHT22;11110;52.386;16.940;2023-01-10T02:46:09;20.80;43.90
21891;DHT22;11110;52.386;16.940;2023-01-10T02:48:40;20.80;44.00
21891;DHT22;11110;52.386;16.940;2023-01-10T02:51:15;20.90;44.50
21891;DHT22;11110;52.386;16.940;2023-01-10T02:53:49;20.80;43.80
21891;DHT22;11110;52.386;16.940;2023-01-10T03:02:39;20.90;43.80
21891;DHT22;11110;52.386;16.940;2023-01-10T03:05:18;20.90;43.80
21891;DHT22;11110;52.386;16.940;2023-01-10T03:07:54;20.90;43.70
21891;DHT22;11110;52.386;16.940;2023-01-10T03:10:29;21.00;43.60
21891;DHT22;11110;52.386;16.940;2023-01-10T03:13:03;20.90;43.60
21891;DHT22;11110;52.386;16.940;2023-01-10T03:15:36;20.80;43.50
21891;DHT22;11110;52.386;16.940;2023-01-10T03:18:09;20.80;43.40
21891;DHT22;11110;52.386;16.940;2023-01-10T03:20:43;20.90;43.40
21891;DHT22;11110;52.386;16.940;2023-01-10T03:23:15;20.80;43.40
21891;DHT22;11110;52.386;16.940;2023-01-10T03:25:46;20.80;43.40
21891;DHT22;11110;52.386;16.940;2023-01-10T03:28:18;20.80;43.30
21891;DHT22;11110;52.386;16.940;2023-01-10T03:30:52;20.80;43.30
21891;DHT22;11110;52.386;16.940;2023-01-10T03:33:24;20.80;43.30
21891;DHT22;11110;52.386;16.940;2023-01-10T03:36:04;20.80;43.20
21891;DHT22;11110;52.386;16.940;2023-01-10T03:38:42;20.70;43.30
21891;DHT22;11110;52.386;16.940;2023-01-10T03:41:15;20.70;43.30
21891;DHT22;11110;52.386;16.940;2023-01-10T03:43:47;20.70;43.20
21891;DHT22;11110;52.386;16.940;2023-01-10T03:46:41;20.70;43.30
21891;DHT22;11110;52.386;16.940;2023-01-10T03:49:13;20.70;43.30
21891;DHT22;11110;52.386;16.940;2023-01-10T03:51:44;20.70;43.30
21891;DHT22;11110;52.386;16.940;2023-01-10T03:54:15;20.70;43.40
21891;DHT22;11110;52.386;16.940;2023-01-10T03:56:45;20.60;43.30
21891;DHT22;11110;52.386;16.940;2023-01-10T03:59:14;20.60;43.30
21891;DHT22;11110;52.386;16.940;2023-01-10T04:01:42;20.50;43.40
21891;DHT22;11110;52.386;16.940;2023-01-10T04:04:11;20.50;43.70
21891;DHT22;11110;52.386;16.940;2023-01-10T04:06:40;20.40;43.70
21891;DHT22;11110;52.386;16.940;2023-01-10T04:09:10;20.30;43.70
21891;DHT22;11110;52.386;16.940;2023-01-10T04:11:39;20.30;43.70
21891;DHT22;11110;52.386;16.940;2023-01-10T04:14:07;20.20;43.80
21891;DHT22;11110;52.386;16.940;2023-01-10T04:16:36;20.20;43.80
21891;DHT22;11110;52.386;16.940;2023-01-10T04:19:05;20.20;43.90
21891;DHT22;11110;52.386;16.940;2023-01-10T04:21:33;20.30;43.90
21891;DHT22;11110;52.386;16.940;2023-01-10T04:24:02;20.30;43.90
21891;DHT22;11110;52.386;16.940;2023-01-10T04:26:32;20.20;43.90
21891;DHT22;11110;52.386;16.940;2023-01-10T04:29:01;20.20;43.90
21891;DHT22;11110;52.386;16.940;2023-01-10T04:31:29;20.20;44.00
21891;DHT22;11110;52.386;16.940;2023-01-10T04:33:58;20.20;44.00
21891;DHT22;11110;52.386;16.940;2023-01-10T04:36:27;20.10;44.00
21891;DHT22;11110;52.386;16.940;2023-01-10T04:38:56;20.10;44.00
21891;DHT22;11110;52.386;16.940;2023-01-10T04:41:24;20.10;44.10
21891;DHT22;11110;52.386;16.940;2023-01-10T04:43:54;20.00;44.20
21891;DHT22;11110;52.386;16.940;2023-01-10T04:46:23;19.90;44.30
21891;DHT22;11110;52.386;16.940;2023-01-10T04:48:51;19.90;44.30
21891;DHT22;11110;52.386;16.940;2023-01-10T04:51:20;19.90;44.40
21891;DHT22;11110;52.386;16.940;2023-01-10T04:53:49;19.90;44.40
21891;DHT22;11110;52.386;16.940;2023-01-10T04:56:19;19.80;44.50
21891;DHT22;11110;52.386;16.940;2023-01-10T04:58:48;19.90;44.80
21891;DHT22;11110;52.386;16.940;2023-01-10T05:01:22;19.90;44.70
21891;DHT22;11110;52.386;16.940;2023-01-10T05:03:53;19.80;44.70
21891;DHT22;11110;52.386;16.940;2023-01-10T05:06:22;19.90;44.80
21891;DHT22;11110;52.386;16.940;2023-01-10T05:08:51;19.80;44.60
21891;DHT22;11110;52.386;16.940;2023-01-10T05:11:20;19.80;44.80
21891;DHT22;11110;52.386;16.940;2023-01-10T05:13:49;19.80;44.70
21891;DHT22;11110;52.386;16.940;2023-01-10T05:16:17;19.90;44.60
21891;DHT22;11110;52.386;16.940;2023-01-10T05:18:47;20.10;44.50
21891;DHT22;11110;52.386;16.940;2023-01-10T05:21:17;20.10;44.30
21891;DHT22;11110;52.386;16.940;2023-01-10T05:23:47;20.10;44.20
21891;DHT22;11110;52.386;16.940;2023-01-10T05:26:17;20.10;44.30
21891;DHT22;11110;52.386;16.940;2023-01-10T05:28:46;20.20;44.30
21891;DHT22;11110;52.386;16.940;2023-01-10T05:31:17;20.30;44.10
21891;DHT22;11110;52.386;16.940;2023-01-10T05:33:49;20.30;43.90
21891;DHT22;11110;52.386;16.940;2023-01-10T05:36:18;20.40;43.90
21891;DHT22;11110;52.386;16.940;2023-01-10T05:38:47;20.40;43.80
21891;DHT22;11110;52.386;16.940;2023-01-10T05:41:15;20.40;43.70
21891;DHT22;11110;52.386;16.940;2023-01-10T05:43:44;20.50;43.70
21891;DHT22;11110;52.386;16.940;2023-01-10T05:46:13;20.50;43.60
21891;DHT22;11110;52.386;16.940;2023-01-10T05:48:42;20.50;43.60
21891;DHT22;11110;52.386;16.940;2023-01-10T05:51:11;20.50;43.60
21891;DHT22;11110;52.386;16.940;2023-01-10T05:53:40;20.60;44.40
21891;DHT22;11110;52.386;16.940;2023-01-10T05:56:09;20.60;43.60
21891;DHT22;11110;52.386;16.940;2023-01-10T05:58:38;20.60;43.80
21891;DHT22;11110;52.386;16.940;2023-01-10T06:01:07;20.70;43.60
21891;DHT22;11110;52.386;16.940;2023-01-10T06:03:36;20.60;43.50
21891;DHT22;11110;52.386;16.940;2023-01-10T06:06:04;20.60;43.60
21891;DHT22;11110;52.386;16.940;2023-01-10T06:08:35;20.60;43.60
21891;DHT22;11110;52.386;16.940;2023-01-10T06:11:04;20.50;43.60
21891;DHT22;11110;52.386;16.940;2023-01-10T06:13:33;20.60;43.60
21891;DHT22;11110;52.386;16.940;2023-01-10T06:16:02;20.50;43.60
21891;DHT22;11110;52.386;16.940;2023-01-10T06:18:31;20.50;43.70
21891;DHT22;11110;52.386;16.940;2023-01-10T06:20:59;20.50;43.70
21891;DHT22;11110;52.386;16.940;2023-01-10T06:23:28;20.50;43.60
21891;DHT22;11110;52.386;16.940;2023-01-10T06:25:58;20.60;43.70
21891;DHT22;11110;52.386;16.940;2023-01-10T06:28:27;20.50;43.70
21891;DHT22;11110;52.386;16.940;2023-01-10T06:30:55;20.50;43.60
21891;DHT22;11110;52.386;16.940;2023-01-10T06:33:24;20.50;43.60
21891;DHT22;11110;52.386;16.940;2023-01-10T06:35:53;20.60;43.70
21891;DHT22;11110;52.386;16.940;2023-01-10T06:38:22;20.60;43.70
21891;DHT22;11110;52.386;16.940;2023-01-10T06:40:50;20.60;43.60
21891;DHT22;11110;52.386;16.940;2023-01-10T06:43:20;20.60;43.60
21891;DHT22;11110;52.386;16.940;2023-01-10T06:45:52;20.60;44.20
21891;DHT22;11110;52.386;16.940;2023-01-10T06:48:21;20.60;43.60
21891;DHT22;11110;52.386;16.940;2023-01-10T06:50:49;20.60;43.70
21891;DHT22;11110;52.386;16.940;2023-01-10T06:53:18;20.50;43.60
21891;DHT22;11110;52.386;16.940;2023-01-10T06:55:47;20.50;43.80
21891;DHT22;11110;52.386;16.940;2023-01-10T06:58:16;20.50;43.80
21891;DHT22;11110;52.386;16.940;2023-01-10T07:00:46;20.50;43.80
21891;DHT22;11110;52.386;16.940;2023-01-10T07:03:15;20.40;44.00
21891;DHT22;11110;52.386;16.940;2023-01-10T07:05:44;20.40;44.00
21891;DHT22;11110;52.386;16.940;2023-01-10T07:08:13;20.40;44.00
21891;DHT22;11110;52.386;16.940;2023-01-10T07:10:42;20.40;44.00
21891;DHT22;11110;52.386;16.940;2023-01-10T07:13:11;20.40;44.00
21891;DHT22;11110;52.386;16.940;2023-01-10T07:15:39;20.40;44.20
21891;DHT22;11110;52.386;16.940;2023-01-10T07:18:09;20.50;44.10
21891;DHT22;11110;52.386;16.940;2023-01-10T07:20:39;20.50;44.10
21891;DHT22;11110;52.386;16.940;2023-01-10T07:23:08;20.40;44.00
21891;DHT22;11110;52.386;16.940;2023-01-10T07:25:37;20.70;44.20
21891;DHT22;11110;52.386;16.940;2023-01-10T07:28:05;20.50;44.10
21891;DHT22;11110;52.386;16.940;2023-01-10T07:30:34;20.50;44.10
21891;DHT22;11110;52.386;16.940;2023-01-10T07:33:03;20.50;44.40
21891;DHT22;11110;52.386;16.940;2023-01-10T07:35:33;20.50;44.50
21891;DHT22;11110;52.386;16.940;2023-01-10T07:38:02;20.50;44.40
21891;DHT22;11110;52.386;16.940;2023-01-10T07:40:31;20.50;44.60
21891;DHT22;11110;52.386;16.940;2023-01-10T07:43:01;20.50;44.70
21891;DHT22;11110;52.386;16.940;2023-01-10T07:45:30;20.60;44.70
21891;DHT22;11110;52.386;16.940;2023-01-10T07:47:59;20.60;44.70
21891;DHT22;11110;52.386;16.940;2023-01-10T07:50:29;20.50;44.50
21891;DHT22;11110;52.386;16.940;2023-01-10T07:53:00;20.60;44.60
21891;DHT22;11110;52.386;16.940;2023-01-10T07:55:30;20.50;44.60
21891;DHT22;11110;52.386;16.940;2023-01-10T07:58:01;20.60;44.60
21891;DHT22;11110;52.386;16.940;2023-01-10T08:00:29;20.70;44.60
21891;DHT22;11110;52.386;16.940;2023-01-10T08:02:58;20.60;44.50
21891;DHT22;11110;52.386;16.940;2023-01-10T08:05:27;20.70;44.70
21891;DHT22;11110;52.386;16.940;2023-01-10T08:07:56;20.60;44.60
21891;DHT22;11110;52.386;16.940;2023-01-10T08:10:27;20.50;44.80
21891;DHT22;11110;52.386;16.940;2023-01-10T08:12:56;20.40;44.90
21891;DHT22;11110;52.386;16.940;2023-01-10T08:15:35;20.50;45.00
21891;DHT22;11110;52.386;16.940;2023-01-10T08:18:04;20.50;44.90
21891;DHT22;11110;52.386;16.940;2023-01-10T08:20:33;20.50;44.90
21891;DHT22;11110;52.386;16.940;2023-01-10T08:23:01;20.50;44.80
21891;DHT22;11110;52.386;16.940;2023-01-10T08:25:31;20.70;44.90
21891;DHT22;11110;52.386;16.940;2023-01-10T08:28:00;20.60;44.80
21891;DHT22;11110;52.386;16.940;2023-01-10T08:30:28;20.60;45.00
21891;DHT22;11110;52.386;16.940;2023-01-10T08:33:00;20.60;44.90
21891;DHT22;11110;52.386;16.940;2023-01-10T08:35:29;20.60;45.00
21891;DHT22;11110;52.386;16.940;2023-01-10T08:37:58;20.60;45.20
21891;DHT22;11110;52.386;16.940;2023-01-10T08:40:27;20.60;45.20
21891;DHT22;11110;52.386;16.940;2023-01-10T08:42:58;20.60;45.20
21891;DHT22;11110;52.386;16.940;2023-01-10T08:45:27;20.60;45.30
21891;DHT22;11110;52.386;16.940;2023-01-10T08:47:56;20.50;45.30
21891;DHT22;11110;52.386;16.940;2023-01-10T08:50:25;20.40;45.60
21891;DHT22;11110;52.386;16.940;2023-01-10T08:52:56;20.40;45.80
21891;DHT22;11110;52.386;16.940;2023-01-10T08:55:26;20.30;45.80
21891;DHT22;11110;52.386;16.940;2023-01-10T08:57:54;20.30;45.80
21891;DHT22;11110;52.386;16.940;2023-01-10T09:00:24;20.30;45.80
21891;DHT22;11110;52.386;16.940;2023-01-10T09:02:53;20.50;45.80
21891;DHT22;11110;52.386;16.940;2023-01-10T09:05:23;20.50;45.70
21891;DHT22;11110;52.386;16.940;2023-01-10T09:07:58;20.30;45.70
21891;DHT22;11110;52.386;16.940;2023-01-10T09:10:28;20.30;45.90
21891;DHT22;11110;52.386;16.940;2023-01-10T09:12:57;20.20;46.20
21891;DHT22;11110;52.386;16.940;2023-01-10T09:15:31;20.00;46.40
21891;DHT22;11110;52.386;16.940;2023-01-10T09:18:01;20.10;46.40
21891;DHT22;11110;52.386;16.940;2023-01-10T09:20:32;20.10;46.40
21891;DHT22;11110;52.386;16.940;2023-01-10T09:23:04;20.20;46.60
21891;DHT22;11110;52.386;16.940;2023-01-10T09:25:34;20.20;46.40
21891;DHT22;11110;52.386;16.940;2023-01-10T09:28:04;20.10;46.40
21891;DHT22;11110;52.386;16.940;2023-01-10T09:30:34;20.20;46.40
21891;DHT22;11110;52.386;16.940;2023-01-10T09:33:05;20.20;46.40
21891;DHT22;11110;52.386;16.940;2023-01-10T09:35:35;20.20;46.40
21891;DHT22;11110;52.386;16.940;2023-01-10T09:38:06;20.10;46.40
21891;DHT22;11110;52.386;16.940;2023-01-10T09:40:46;20.10;46.70
21891;DHT22;11110;52.386;16.940;2023-01-10T09:43:25;20.30;46.50
21891;DHT22;11110;52.386;16.940;2023-01-10T09:46:01;20.30;46.40
21891;DHT22;11110;52.386;16.940;2023-01-10T09:48:38;20.30;46.60
21891;DHT22;11110;52.386;16.940;2023-01-10T09:51:25;20.50;46.70
21891;DHT22;11110;52.386;16.940;2023-01-10T09:53:58;20.50;46.90
21891;DHT22;11110;52.386;16.940;2023-01-10T09:56:39;20.50;46.80
21891;DHT22;11110;52.386;16.940;2023-01-10T09:59:12;20.50;46.70
21891;DHT22;11110;52.386;16.940;2023-01-10T10:01:44;20.60;46.50
21891;DHT22;11110;52.386;16.940;2023-01-10T10:04:22;20.70;46.40
21891;DHT22;11110;52.386;16.940;2023-01-10T10:06:53;20.80;46.20
21891;DHT22;11110;52.386;16.940;2023-01-10T10:09:25;20.90;45.90
21891;DHT22;11110;52.386;16.940;2023-01-10T10:12:13;20.90;45.70
21891;DHT22;11110;52.386;16.940;2023-01-10T10:14:57;21.00;45.40
21891;DHT22;11110;52.386;16.940;2023-01-10T10:17:38;20.80;45.60
21891;DHT22;11110;52.386;16.940;2023-01-10T10:20:22;20.80;46.00
21891;DHT22;11110;52.386;16.940;2023-01-10T10:23:02;20.60;46.10
21891;DHT22;11110;52.386;16.940;2023-01-10T10:25:49;20.50;46.40
21891;DHT22;11110;52.386;16.940;2023-01-10T10:31:35;20.30;46.70
21891;DHT22;11110;52.386;16.940;2023-01-10T10:34:15;20.40;46.70
21891;DHT22;11110;52.386;16.940;2023-01-10T10:36:49;20.30;46.50
21891;DHT22;11110;52.386;16.940;2023-01-10T10:39:24;20.30;46.50
21891;DHT22;11110;52.386;16.940;2023-01-10T10:41:56;20.30;46.90
21891;DHT22;11110;52.386;16.940;2023-01-10T10:44:31;20.20;46.90
21891;DHT22;11110;52.386;16.940;2023-01-10T10:47:01;20.20;46.90
21891;DHT22;11110;52.386;16.940;2023-01-10T10:49:36;20.00;47.20
21891;DHT22;11110;52.386;16.940;2023-01-10T10:52:13;20.00;47.20
21891;DHT22;11110;52.386;16.940;2023-01-10T10:54:44;20.00;47.30
21891;DHT22;11110;52.386;16.940;2023-01-10T10:57:14;20.10;47.20
21891;DHT22;11110;52.386;16.940;2023-01-10T10:59:46;20.30;47.00
21891;DHT22;11110;52.386;16.940;2023-01-10T11:02:22;20.30;46.90
21891;DHT22;11110;52.386;16.940;2023-01-10T11:04:55;20.50;46.60
21891;DHT22;11110;52.386;16.940;2023-01-10T11:07:28;20.70;46.50
21891;DHT22;11110;52.386;16.940;2023-01-10T11:09:58;20.70;46.40
21891;DHT22;11110;52.386;16.940;2023-01-10T11:12:37;20.80;46.20
21891;DHT22;11110;52.386;16.940;2023-01-10T11:15:11;20.90;46.70
21891;DHT22;11110;52.386;16.940;2023-01-10T11:17:39;21.00;46.00
21891;DHT22;11110;52.386;16.940;2023-01-10T11:20:15;21.10;45.80
21891;DHT22;11110;52.386;16.940;2023-01-10T11:22:47;21.30;45.60
21891;DHT22;11110;52.386;16.940;2023-01-10T11:25:18;21.30;45.30
21891;DHT22;11110;52.386;16.940;2023-01-10T11:27:50;21.20;45.30
21891;DHT22;11110;52.386;16.940;2023-01-10T11:30:21;21.20;45.30
21891;DHT22;11110;52.386;16.940;2023-01-10T11:32:52;21.40;45.30
21891;DHT22;11110;52.386;16.940;2023-01-10T11:35:25;21.50;45.00
21891;DHT22;11110;52.386;16.940;2023-01-10T11:37:59;21.40;45.00
21891;DHT22;11110;52.386;16.940;2023-01-10T11:40:28;21.20;45.10
21891;DHT22;11110;52.386;16.940;2023-01-10T11:42:58;21.20;45.20
21891;DHT22;11110;52.386;16.940;2023-01-10T11:45:29;21.30;45.90
21891;DHT22;11110;52.386;16.940;2023-01-10T11:48:07;21.30;44.70
21891;DHT22;11110;52.386;16.940;2023-01-10T11:50:40;21.20;45.00
21891;DHT22;11110;52.386;16.940;2023-01-10T11:53:30;21.20;45.20
21891;DHT22;11110;52.386;16.940;2023-01-10T11:56:02;20.90;44.90
21891;DHT22;11110;52.386;16.940;2023-01-10T11:58:33;20.60;45.40
21891;DHT22;11110;52.386;16.940;2023-01-10T12:01:04;20.60;45.60
21891;DHT22;11110;52.386;16.940;2023-01-10T12:03:36;20.40;45.70
21891;DHT22;11110;52.386;16.940;2023-01-10T12:06:13;20.50;46.60
21891;DHT22;11110;52.386;16.940;2023-01-10T12:08:42;20.40;46.00
21891;DHT22;11110;52.386;16.940;2023-01-10T12:11:23;20.50;45.60
21891;DHT22;11110;52.386;16.940;2023-01-10T12:13:55;20.60;45.70
21891;DHT22;11110;52.386;16.940;2023-01-10T12:16:26;20.60;45.40
21891;DHT22;11110;52.386;16.940;2023-01-10T12:18:57;20.60;45.70
21891;DHT22;11110;52.386;16.940;2023-01-10T12:21:33;20.70;45.10
21891;DHT22;11110;52.386;16.940;2023-01-10T12:24:10;20.70;45.20
21891;DHT22;11110;52.386;16.940;2023-01-10T12:26:40;20.70;44.50
21891;DHT22;11110;52.386;16.940;2023-01-10T12:29:14;20.60;44.50
21891;DHT22;11110;52.386;16.940;2023-01-10T12:31:44;20.40;44.80
21891;DHT22;11110;52.386;16.940;2023-01-10T12:34:16;20.30;45.00
21891;DHT22;11110;52.386;16.940;2023-01-10T12:36:56;20.30;45.20
21891;DHT22;11110;52.386;16.940;2023-01-10T12:39:29;20.20;45.50
21891;DHT22;11110;52.386;16.940;2023-01-10T12:42:10;20.20;45.50
21891;DHT22;11110;52.386;16.940;2023-01-10T12:45:02;20.20;45.60
21891;DHT22;11110;52.386;16.940;2023-01-10T12:47:41;20.10;45.60
21891;DHT22;11110;52.386;16.940;2023-01-10T12:50:13;20.00;45.70
21891;DHT22;11110;52.386;16.940;2023-01-10T12:52:49;20.20;45.70
21891;DHT22;11110;52.386;16.940;2023-01-10T12:55:25;20.30;45.40
21891;DHT22;11110;52.386;16.940;2023-01-10T12:57:57;20.50;45.00
21891;DHT22;11110;52.386;16.940;2023-01-10T13:00:30;20.30;45.20
21891;DHT22;11110;52.386;16.940;2023-01-10T13:03:18;20.20;45.40
21891;DHT22;11110;52.386;16.940;2023-01-10T13:05:48;20.30;45.30
21891;DHT22;11110;52.386;16.940;2023-01-10T13:08:22;20.20;45.60
21891;DHT22;11110;52.386;16.940;2023-01-10T13:10:54;20.30;45.60
21891;DHT22;11110;52.386;16.940;2023-01-10T13:13:31;20.30;45.80
21891;DHT22;11110;52.386;16.940;2023-01-10T13:16:21;20.40;45.90
21891;DHT22;11110;52.386;16.940;2023-01-10T13:18:59;20.40;45.80
21891;DHT22;11110;52.386;16.940;2023-01-10T13:21:29;20.70;44.90
21891;DHT22;11110;52.386;16.940;2023-01-10T13:24:01;20.80;44.30
21891;DHT22;11110;52.386;16.940;2023-01-10T13:26:49;20.80;43.60
21891;DHT22;11110;52.386;16.940;2023-01-10T13:29:21;20.80;43.20
21891;DHT22;11110;52.386;16.940;2023-01-10T13:31:51;20.70;43.30
21891;DHT22;11110;52.386;16.940;2023-01-10T13:34:26;20.60;43.30
21891;DHT22;11110;52.386;16.940;2023-01-10T13:37:02;20.30;43.30
21891;DHT22;11110;52.386;16.940;2023-01-10T13:39:35;20.20;44.00
21891;DHT22;11110;52.386;16.940;2023-01-10T13:42:20;20.20;44.50
21891;DHT22;11110;52.386;16.940;2023-01-10T13:45:18;20.40;44.30
21891;DHT22;11110;52.386;16.940;2023-01-10T13:48:02;20.40;44.30
21891;DHT22;11110;52.386;16.940;2023-01-10T13:51:13;20.50;44.40
21891;DHT22;11110;52.386;16.940;2023-01-10T13:53:50;20.70;44.30
21891;DHT22;11110;52.386;16.940;2023-01-10T13:56:36;20.80;44.40
21891;DHT22;11110;52.386;16.940;2023-01-10T13:59:58;20.80;44.40
21891;DHT22;11110;52.386;16.940;2023-01-10T14:02:23;20.90;44.30
21891;DHT22;11110;52.386;16.940;2023-01-10T14:04:59;21.00;44.40
21891;DHT22;11110;52.386;16.940;2023-01-10T14:07:31;20.90;44.20
21891;DHT22;11110;52.386;16.940;2023-01-10T14:10:03;20.90;44.20
21891;DHT22;11110;52.386;16.940;2023-01-10T14:12:36;20.90;44.70
21891;DHT22;11110;52.386;16.940;2023-01-10T14:15:19;21.00;44.40
21891;DHT22;11110;52.386;16.940;2023-01-10T14:17:55;21.30;44.10
21891;DHT22;11110;52.386;16.940;2023-01-10T14:20:26;21.20;44.00
21891;DHT22;11110;52.386;16.940;2023-01-10T14:23:17;21.50;43.80
21891;DHT22;11110;52.386;16.940;2023-01-10T14:25:51;21.40;43.60
21891;DHT22;11110;52.386;16.940;2023-01-10T14:28:24;21.30;43.80
21891;DHT22;11110;52.386;16.940;2023-01-10T14:31:00;21.40;43.80
21891;DHT22;11110;52.386;16.940;2023-01-10T14:33:31;21.40;43.80
21891;DHT22;11110;52.386;16.940;2023-01-10T14:36:03;21.40;43.90
21891;DHT22;11110;52.386;16.940;2023-01-10T14:38:36;21.50;43.90
21891;DHT22;11110;52.386;16.940;2023-01-10T14:41:10;21.60;43.90
21891;DHT22;11110;52.386;16.940;2023-01-10T14:43:43;21.50;43.80
21891;DHT22;11110;52.386;16.940;2023-01-10T14:46:15;21.50;43.90
21891;DHT22;11110;52.386;16.940;2023-01-10T14:48:47;21.50;44.00
21891;DHT22;11110;52.386;16.940;2023-01-10T14:51:21;21.40;44.10
21891;DHT22;11110;52.386;16.940;2023-01-10T14:53:55;21.40;44.30
21891;DHT22;11110;52.386;16.940;2023-01-10T14:56:26;21.40;44.30
21891;DHT22;11110;52.386;16.940;2023-01-10T14:58:55;21.50;44.20
21891;DHT22;11110;52.386;16.940;2023-01-10T15:01:26;21.50;44.30
21891;DHT22;11110;52.386;16.940;2023-01-10T15:03:57;21.50;44.10
21891;DHT22;11110;52.386;16.940;2023-01-10T15:06:29;21.70;44.20
21891;DHT22;11110;52.386;16.940;2023-01-10T15:09:17;21.60;44.00
21891;DHT22;11110;52.386;16.940;2023-01-10T15:11:46;21.80;44.00
21891;DHT22;11110;52.386;16.940;2023-01-10T15:14:18;21.80;43.90
21891;DHT22;11110;52.386;16.940;2023-01-10T15:16:52;21.80;44.00
21891;DHT22;11110;52.386;16.940;2023-01-10T15:19:23;21.90;44.00
21891;DHT22;11110;52.386;16.940;2023-01-10T15:21:52;21.90;43.80
21891;DHT22;11110;52.386;16.940;2023-01-10T15:24:32;22.10;43.80
21891;DHT22;11110;52.386;16.940;2023-01-10T15:27:02;22.10;43.60
21891;DHT22;11110;52.386;16.940;2023-01-10T15:29:32;21.80;43.80
21891;DHT22;11110;52.386;16.940;2023-01-10T15:32:07;21.80;43.90
21891;DHT22;11110;52.386;16.940;2023-01-10T15:34:38;21.80;44.00
21891;DHT22;11110;52.386;16.940;2023-01-10T15:37:18;21.80;44.10
21891;DHT22;11110;52.386;16.940;2023-01-10T15:39:48;21.80;44.00
21891;DHT22;11110;52.386;16.940;2023-01-10T15:42:19;21.80;44.10
21891;DHT22;11110;52.386;16.940;2023-01-10T15:44:49;21.90;44.20
21891;DHT22;11110;52.386;16.940;2023-01-10T15:47:49;21.80;44.20
21891;DHT22;11110;52.386;16.940;2023-01-10T15:50:25;21.80;44.30
21891;DHT22;11110;52.386;16.940;2023-01-10T15:52:56;21.70;44.50
21891;DHT22;11110;52.386;16.940;2023-01-10T15:55:36;21.80;44.70
21891;DHT22;11110;52.386;16.940;2023-01-10T15:58:20;21.70;44.60
21891;DHT22;11110;52.386;16.940;2023-01-10T16:00:50;21.70;44.70
21891;DHT22;11110;52.386;16.940;2023-01-10T16:03:32;21.70;44.60
21891;DHT22;11110;52.386;16.940;2023-01-10T16:06:04;21.70;44.50